Time;durP1;ratioP1;P1;durP2;ratioP2;P2;SDS_P1;SDS_P2;PMS_P1;PMS_P2;Temp;Humidity;BMP_temperature;BMP_pressure;BME280_temperature;BME280_humidity;BME280_pressure;Samples;Min_cycle;Max_cycle;Signal;HPM_P1;HPM_P2
2022/11/30 00:01:30;;;;;;;125.13;31.42;;;6.90;99.90;;;;;;5082039;28;20473;-74
2022/11/30 00:03:56;;;;;;;261.52;37.90;;;6.80;99.90;;;;;;5087134;28;20028;-73
2022/11/30 00:06:23;;;;;;;345.30;45.67;;;6.80;99.90;;;;;;5086706;28;20470;-74
2022/11/30 00:08:54;;;;;;;191.18;36.35;;;6.80;99.90;;;;;;5095143;28;20394;-73
2022/11/30 00:11:21;;;;;;;236.48;36.15;;;6.70;99.90;;;;;;5086186;28;20048;-73
2022/11/30 00:13:47;;;;;;;212.00;36.38;;;6.70;99.90;;;;;;5085479;28;20036;-74
2022/11/30 00:16:13;;;;;;;343.35;43.70;;;6.70;99.90;;;;;;5086706;28;20067;-74
2022/11/30 00:18:39;;;;;;;249.20;38.95;;;6.70;99.90;;;;;;5086384;28;20036;-73
2022/11/30 00:21:09;;;;;;;212.18;33.05;;;6.70;99.90;;;;;;5086426;28;20059;-73
2022/11/30 00:23:39;;;;;;;129.90;29.90;;;6.70;99.90;;;;;;5086893;28;20499;-72
2022/11/30 00:26:07;;;;;;;348.45;38.45;;;6.70;99.90;;;;;;5086340;28;20028;-73
2022/11/30 00:28:34;;;;;;;365.75;37.58;;;6.70;99.90;;;;;;5086553;28;20016;-73
2022/11/30 00:31:06;;;;;;;291.67;33.83;;;6.70;99.90;;;;;;5085593;28;20056;-73
2022/11/30 00:33:32;;;;;;;323.80;36.45;;;6.70;99.90;;;;;;5066404;28;20036;-72
2022/11/30 00:36:00;;;;;;;220.80;29.92;;;6.60;99.90;;;;;;5081398;28;20119;-72
2022/11/30 00:38:26;;;;;;;230.57;30.25;;;6.60;99.90;;;;;;5084757;28;20028;-72
2022/11/30 00:40:51;;;;;;;146.32;25.83;;;6.50;99.90;;;;;;5085227;28;20027;-73
2022/11/30 00:43:18;;;;;;;151.40;27.10;;;6.50;99.90;;;;;;5084311;28;20464;-72
2022/11/30 00:45:43;;;;;;;143.82;24.67;;;6.50;99.90;;;;;;5083743;28;20480;-72
2022/11/30 00:48:09;;;;;;;95.50;22.83;;;6.50;99.90;;;;;;5084506;28;20032;-72
2022/11/30 00:50:34;;;;;;;125.68;23.30;;;6.60;99.90;;;;;;5089965;28;20043;-73
2022/11/30 00:53:00;;;;;;;174.60;28.52;;;6.60;99.90;;;;;;5088218;28;20031;-72
2022/11/30 00:55:26;;;;;;;181.43;27.33;;;6.60;99.90;;;;;;5084004;28;20652;-73
2022/11/30 00:57:52;;;;;;;178.35;26.00;;;6.60;99.90;;;;;;5086403;28;20116;-72
2022/11/30 01:00:18;;;;;;;165.90;26.42;;;6.60;99.90;;;;;;5086153;28;20060;-73
2022/11/30 01:02:44;;;;;;;160.00;26.60;;;6.60;99.90;;;;;;5077653;28;20035;-73
2022/11/30 01:05:10;;;;;;;152.63;25.38;;;6.60;99.90;;;;;;5084601;28;20440;-72
2022/11/30 01:07:35;;;;;;;113.60;23.20;;;6.60;99.90;;;;;;5084063;28;20123;-72
2022/11/30 01:10:01;;;;;;;158.85;24.65;;;6.60;99.90;;;;;;5081548;28;20115;-72
2022/11/30 01:12:27;;;;;;;126.60;24.35;;;6.60;99.90;;;;;;5085082;28;20035;-72
2022/11/30 01:14:53;;;;;;;96.90;23.63;;;6.60;99.90;;;;;;5082787;28;20032;-73
2022/11/30 01:17:18;;;;;;;160.10;26.00;;;6.60;99.90;;;;;;5083876;28;20032;-72
2022/11/30 01:19:44;;;;;;;106.95;21.20;;;6.70;99.90;;;;;;5084055;28;20647;-72
2022/11/30 01:22:10;;;;;;;150.63;26.17;;;6.60;99.90;;;;;;5086315;28;20031;-72
2022/11/30 01:24:35;;;;;;;94.35;21.15;;;6.60;99.90;;;;;;5084143;28;20122;-72
2022/11/30 01:27:01;;;;;;;74.15;20.75;;;6.70;99.90;;;;;;5083790;28;20027;-73
2022/11/30 01:29:26;;;;;;;113.68;22.20;;;6.60;99.90;;;;;;5082850;28;20054;-73
2022/11/30 01:31:52;;;;;;;113.82;22.85;;;6.70;99.90;;;;;;5085603;28;20024;-73
2022/11/30 01:34:17;;;;;;;82.50;21.60;;;6.70;99.90;;;;;;5082506;28;20072;-73
2022/11/30 01:36:43;;;;;;;131.75;24.13;;;6.70;99.90;;;;;;5085821;28;20031;-72
2022/11/30 01:39:09;;;;;;;127.28;25.63;;;6.70;99.90;;;;;;5083749;28;20073;-73
2022/11/30 01:41:35;;;;;;;148.07;25.50;;;6.70;99.90;;;;;;5085187;28;20034;-73
2022/11/30 01:44:03;;;;;;;195.52;28.80;;;6.80;99.90;;;;;;5083869;28;20107;-73
2022/11/30 01:47:00;;;;;;;173.20;26.50;;;6.70;99.90;;;;;;5084777;28;20029;-73
2022/11/30 01:49:36;;;;;;;104.28;23.30;;;6.70;99.90;;;;;;5064555;28;20043;-73
2022/11/30 01:52:08;;;;;;;138.30;26.70;;;6.80;99.90;;;;;;5082476;28;20406;-72
2022/11/30 01:55:01;;;;;;;104.90;25.48;;;6.80;99.90;;;;;;5094807;28;20033;-72
2022/11/30 01:57:40;;;;;;;105.30;24.42;;;6.90;99.90;;;;;;5084026;28;20055;-73
2022/11/30 02:00:11;;;;;;;107.60;25.10;;;6.90;99.90;;;;;;5088748;28;20093;-72
2022/11/30 02:03:04;;;;;;;142.98;28.55;;;6.90;99.90;;;;;;5087237;28;20500;-72
2022/11/30 02:05:33;;;;;;;106.50;27.80;;;6.90;99.90;;;;;;5080143;28;20077;-72
2022/11/30 02:07:59;;;;;;;115.57;28.25;;;6.90;99.90;;;;;;5088998;28;20111;-73
2022/11/30 02:10:28;;;;;;;95.07;27.00;;;7.00;99.90;;;;;;5087092;28;20729;-72
2022/11/30 02:13:19;;;;;;;111.82;29.92;;;7.00;99.90;;;;;;5089749;28;20024;-73
2022/11/30 02:16:01;;;;;;;121.45;28.85;;;7.10;99.90;;;;;;5081900;28;20043;-73
2022/11/30 02:18:37;;;;;;;127.05;29.60;;;7.10;99.90;;;;;;5089279;28;20115;-72
2022/11/30 02:21:08;;;;;;;119.05;29.95;;;7.10;99.90;;;;;;5088312;28;20107;-73
2022/11/30 02:23:40;;;;;;;98.93;27.63;;;7.10;99.90;;;;;;5084463;28;20024;-73
2022/11/30 02:26:27;;;;;;;102.47;28.88;;;7.10;99.90;;;;;;5081429;28;20039;-73
2022/11/30 02:29:27;;;;;;;97.38;29.27;;;7.10;99.90;;;;;;5089860;28;20028;-74
2022/11/30 02:32:01;;;;;;;103.75;28.23;;;7.10;99.90;;;;;;5083468;28;20036;-74
2022/11/30 02:34:31;;;;;;;91.88;26.23;;;7.10;99.90;;;;;;5085489;28;20062;-73
2022/11/30 02:36:59;;;;;;;108.68;28.88;;;7.10;99.90;;;;;;5086195;28;20024;-74
2022/11/30 02:39:25;;;;;;;129.52;30.40;;;7.10;99.90;;;;;;5085504;28;20039;-73
2022/11/30 02:41:51;;;;;;;112.53;28.52;;;7.10;99.90;;;;;;5086364;28;20080;-74
2022/11/30 02:44:17;;;;;;;98.28;27.48;;;7.10;99.90;;;;;;5085574;28;20040;-74
2022/11/30 02:46:53;;;;;;;100.13;26.13;;;7.10;99.90;;;;;;5086363;28;20085;-74
2022/11/30 02:49:37;;;;;;;83.38;26.15;;;7.10;99.90;;;;;;5081488;28;20113;-73
2022/11/30 02:52:04;;;;;;;89.93;25.67;;;7.10;99.90;;;;;;5093787;28;20474;-74
2022/11/30 02:54:31;;;;;;;96.65;28.17;;;7.10;99.90;;;;;;5086993;28;20081;-73
2022/11/30 02:56:56;;;;;;;86.82;26.75;;;7.20;99.90;;;;;;5088082;28;20112;-72
2022/11/30 02:59:22;;;;;;;96.45;27.73;;;7.20;99.90;;;;;;5088107;28;20024;-73
2022/11/30 03:01:48;;;;;;;97.63;27.92;;;7.20;99.90;;;;;;5086850;28;20517;-72
2022/11/30 03:04:13;;;;;;;96.53;27.92;;;7.30;99.90;;;;;;5088185;28;20063;-73
2022/11/30 03:06:39;;;;;;;86.22;26.27;;;7.30;99.90;;;;;;5087986;28;20063;-72
2022/11/30 03:09:04;;;;;;;103.97;27.40;;;7.40;99.90;;;;;;5087944;28;20085;-72
2022/11/30 03:11:30;;;;;;;100.10;29.13;;;7.40;99.90;;;;;;5088253;28;20115;-72
2022/11/30 03:13:56;;;;;;;91.00;27.73;;;7.40;99.90;;;;;;5087778;28;20480;-72
2022/11/30 03:16:21;;;;;;;94.63;27.35;;;7.40;99.90;;;;;;5088607;28;20031;-72
2022/11/30 03:18:47;;;;;;;103.95;27.65;;;7.40;99.90;;;;;;5087309;28;20024;-73
2022/11/30 03:21:12;;;;;;;111.88;29.90;;;7.40;99.90;;;;;;5088180;28;20024;-73
2022/11/30 03:23:39;;;;;;;87.85;26.08;;;7.40;99.90;;;;;;5087499;28;20405;-73
2022/11/30 03:26:06;;;;;;;95.60;26.20;;;7.40;99.90;;;;;;5085461;28;20032;-72
2022/11/30 03:28:33;;;;;;;103.78;27.27;;;7.50;99.90;;;;;;5085649;28;20020;-73
2022/11/30 03:30:59;;;;;;;109.40;29.35;;;7.50;99.90;;;;;;5086523;28;20043;-72
2022/11/30 03:33:24;;;;;;;105.10;29.02;;;7.50;99.90;;;;;;5088048;28;20028;-73
2022/11/30 03:36:07;;;;;;;93.35;25.75;;;7.50;99.90;;;;;;5086603;28;20120;-72
2022/11/30 03:38:33;;;;;;;106.07;27.17;;;7.50;99.90;;;;;;5085709;28;20454;-72
2022/11/30 03:41:09;;;;;;;107.07;27.52;;;7.50;99.90;;;;;;5085969;28;20094;-72
2022/11/30 03:43:35;;;;;;;103.78;26.52;;;7.50;99.90;;;;;;5086442;28;20482;-73
2022/11/30 03:46:01;;;;;;;98.50;26.88;;;7.50;99.90;;;;;;5085802;28;20036;-72
2022/11/30 03:48:26;;;;;;;105.90;28.88;;;7.50;99.90;;;;;;5082229;28;20040;-72
2022/11/30 03:50:52;;;;;;;84.82;26.08;;;7.60;99.90;;;;;;5082505;28;20032;-72
2022/11/30 03:53:19;;;;;;;119.65;28.10;;;7.60;99.90;;;;;;5088277;28;20067;-73
2022/11/30 03:55:45;;;;;;;97.93;27.50;;;7.60;99.90;;;;;;5084829;28;20032;-72
2022/11/30 03:58:11;;;;;;;113.07;28.17;;;7.60;99.90;;;;;;5078972;28;20244;-71
2022/11/30 04:00:38;;;;;;;114.43;28.27;;;7.70;99.90;;;;;;5086088;28;20121;-73
2022/11/30 04:03:04;;;;;;;116.40;27.08;;;7.60;99.90;;;;;;5084126;28;20036;-72
2022/11/30 04:05:29;;;;;;;104.57;25.73;;;7.60;99.90;;;;;;5084275;28;20062;-72
2022/11/30 04:07:55;;;;;;;104.75;27.55;;;7.60;99.90;;;;;;5085267;28;20051;-73
2022/11/30 04:10:22;;;;;;;103.40;26.15;;;7.60;99.90;;;;;;5083024;28;20033;-72
2022/11/30 04:12:48;;;;;;;93.45;25.85;;;7.60;99.90;;;;;;5065825;28;20044;-72
2022/11/30 04:15:14;;;;;;;114.85;27.58;;;7.70;99.90;;;;;;5075835;28;20043;-72
2022/11/30 04:17:39;;;;;;;103.72;26.92;;;7.70;99.90;;;;;;5084678;28;20074;-72
2022/11/30 04:20:06;;;;;;;112.45;27.05;;;7.70;99.90;;;;;;5073936;28;20039;-72
2022/11/30 04:22:32;;;;;;;91.90;25.33;;;7.60;99.90;;;;;;5085143;28;20023;-73
2022/11/30 04:24:58;;;;;;;90.22;26.73;;;7.70;99.90;;;;;;5083094;28;20614;-73
2022/11/30 04:27:24;;;;;;;77.32;25.88;;;7.70;99.90;;;;;;5085798;28;20521;-73
2022/11/30 04:29:49;;;;;;;92.40;26.33;;;7.70;99.90;;;;;;5086408;28;20031;-73
2022/11/30 04:32:15;;;;;;;100.72;24.65;;;7.70;99.90;;;;;;5082774;28;20038;-72
2022/11/30 04:34:41;;;;;;;104.35;26.85;;;7.70;99.90;;;;;;5082968;28;20153;-72
2022/11/30 04:37:06;;;;;;;99.40;26.20;;;7.60;99.90;;;;;;5083371;28;20036;-72
2022/11/30 04:39:34;;;;;;;92.53;26.23;;;7.70;99.90;;;;;;5079947;28;20024;-72
2022/11/30 04:42:00;;;;;;;108.40;27.50;;;7.70;99.90;;;;;;5080191;28;20039;-72
2022/11/30 04:44:26;;;;;;;100.68;26.23;;;7.70;99.90;;;;;;5087459;28;20036;-73
2022/11/30 04:46:51;;;;;;;100.38;26.80;;;7.70;99.90;;;;;;5083898;28;20031;-73
2022/11/30 04:49:17;;;;;;;102.90;27.48;;;7.60;99.90;;;;;;5081162;28;20032;-72
2022/11/30 04:51:42;;;;;;;93.00;25.40;;;7.60;99.90;;;;;;5086678;28;20077;-72
2022/11/30 04:54:08;;;;;;;101.82;26.88;;;7.60;99.90;;;;;;5082177;28;20040;-73
2022/11/30 04:56:33;;;;;;;113.40;29.05;;;7.70;99.90;;;;;;5078682;28;20028;-73
2022/11/30 04:59:01;;;;;;;109.97;27.10;;;7.70;99.90;;;;;;5078508;28;20028;-74
2022/11/30 05:01:26;;;;;;;99.20;26.85;;;7.70;99.90;;;;;;5082647;28;20282;-73
2022/11/30 05:03:52;;;;;;;98.75;25.90;;;7.70;99.90;;;;;;5085636;28;20485;-74
2022/11/30 05:06:18;;;;;;;109.80;28.38;;;7.70;99.90;;;;;;5085222;28;20057;-74
2022/11/30 05:08:43;;;;;;;113.70;28.02;;;7.70;99.90;;;;;;5082062;28;20111;-73
2022/11/30 05:11:09;;;;;;;112.57;27.45;;;7.70;99.90;;;;;;5086273;28;20039;-74
2022/11/30 05:13:35;;;;;;;108.00;27.73;;;7.70;99.90;;;;;;5086463;28;20043;-74
2022/11/30 05:16:00;;;;;;;107.00;28.00;;;7.70;99.90;;;;;;5086216;28;20028;-74
2022/11/30 05:18:26;;;;;;;114.72;27.17;;;7.70;99.90;;;;;;5085760;28;20081;-74
2022/11/30 05:20:52;;;;;;;108.15;26.80;;;7.70;99.90;;;;;;5086496;28;20028;-75
2022/11/30 05:23:18;;;;;;;113.60;28.35;;;7.70;99.90;;;;;;5084695;28;20097;-74
2022/11/30 05:25:44;;;;;;;118.95;28.33;;;7.60;99.90;;;;;;5085820;28;20090;-72
2022/11/30 05:28:10;;;;;;;142.02;29.30;;;7.70;99.90;;;;;;5082473;28;20032;-72
2022/11/30 05:30:41;;;;;;;138.95;28.15;;;7.60;99.90;;;;;;5082938;28;20111;-73
2022/11/30 05:33:06;;;;;;;108.35;26.95;;;7.60;99.90;;;;;;5089124;28;20055;-72
2022/11/30 05:35:32;;;;;;;114.22;27.33;;;7.60;99.90;;;;;;5084794;28;20508;-72
2022/11/30 05:37:58;;;;;;;106.30;26.77;;;7.60;99.90;;;;;;5083448;28;20083;-73
2022/11/30 05:40:26;;;;;;;101.72;27.38;;;7.60;99.90;;;;;;5084830;28;20067;-72
2022/11/30 05:42:56;;;;;;;98.88;26.40;;;7.60;99.90;;;;;;5080513;28;20028;-72
2022/11/30 05:45:22;;;;;;;103.07;25.38;;;7.60;99.90;;;;;;5084388;28;20043;-73
2022/11/30 05:47:47;;;;;;;113.53;26.92;;;7.60;99.90;;;;;;5087841;28;20036;-72
2022/11/30 05:50:13;;;;;;;112.45;26.38;;;7.60;99.90;;;;;;5082444;28;20050;-72
2022/11/30 05:52:39;;;;;;;84.35;24.20;;;7.50;99.90;;;;;;5083591;28;20031;-72
2022/11/30 05:55:04;;;;;;;93.68;24.35;;;7.50;99.90;;;;;;5085155;28;20036;-73
2022/11/30 05:57:30;;;;;;;128.73;27.50;;;7.40;99.90;;;;;;5080059;28;20556;-72
2022/11/30 05:59:56;;;;;;;109.85;25.42;;;7.40;99.90;;;;;;5084188;28;20554;-73
2022/11/30 06:02:21;;;;;;;92.90;24.10;;;7.30;99.90;;;;;;5084570;28;20055;-73
2022/11/30 06:04:47;;;;;;;153.77;27.88;;;7.30;99.90;;;;;;5077675;28;20063;-72
2022/11/30 06:07:12;;;;;;;106.53;26.83;;;7.30;99.90;;;;;;5081202;28;20132;-72
2022/11/30 06:09:38;;;;;;;79.82;23.83;;;7.30;99.90;;;;;;5082259;28;20028;-73
2022/11/30 06:12:04;;;;;;;101.30;26.73;;;7.30;99.90;;;;;;5086718;28;20024;-73
2022/11/30 06:14:30;;;;;;;154.20;27.50;;;7.40;99.90;;;;;;5081575;28;20514;-73
2022/11/30 06:16:55;;;;;;;82.50;24.25;;;7.30;99.90;;;;;;5086046;28;20039;-73
2022/11/30 06:19:21;;;;;;;104.78;26.50;;;7.30;99.90;;;;;;5085473;28;20028;-73
2022/11/30 06:21:46;;;;;;;99.50;27.08;;;7.30;99.90;;;;;;5085475;28;20024;-73
2022/11/30 06:24:12;;;;;;;98.95;26.25;;;7.30;99.90;;;;;;5083827;28;20032;-73
2022/11/30 06:26:38;;;;;;;109.15;26.77;;;7.30;99.90;;;;;;5069227;28;20134;-73
2022/11/30 06:29:04;;;;;;;101.65;24.83;;;7.30;99.90;;;;;;5063586;28;20127;-73
2022/11/30 06:31:30;;;;;;;97.05;24.10;;;7.20;99.90;;;;;;5076510;28;20149;-73
2022/11/30 06:33:58;;;;;;;82.57;23.65;;;7.20;99.90;;;;;;5083551;28;20028;-72
2022/11/30 06:36:23;;;;;;;120.32;25.70;;;7.10;99.90;;;;;;5083192;28;20802;-73
2022/11/30 06:38:50;;;;;;;115.45;26.08;;;7.10;99.90;;;;;;5084813;28;20113;-73
2022/11/30 06:41:16;;;;;;;101.20;25.45;;;7.10;99.90;;;;;;5081873;28;20537;-73
2022/11/30 06:43:41;;;;;;;94.97;25.15;;;7.10;99.90;;;;;;5087479;28;20043;-73
2022/11/30 06:46:07;;;;;;;100.63;24.60;;;7.10;99.90;;;;;;5087028;28;20054;-73
2022/11/30 06:48:34;;;;;;;116.35;26.40;;;7.20;99.90;;;;;;5085487;28;20135;-72
2022/11/30 06:51:00;;;;;;;116.10;28.05;;;7.20;99.90;;;;;;5089269;28;20444;-73
2022/11/30 06:53:26;;;;;;;94.20;24.85;;;7.20;99.90;;;;;;5086120;28;20121;-73
2022/11/30 06:55:52;;;;;;;100.28;25.38;;;7.20;99.90;;;;;;5087255;28;20113;-73
2022/11/30 06:58:18;;;;;;;105.97;26.05;;;7.30;99.90;;;;;;5086031;28;20108;-73
2022/11/30 07:00:44;;;;;;;86.88;23.85;;;7.20;99.90;;;;;;5077878;28;20042;-73
2022/11/30 07:03:10;;;;;;;118.05;25.60;;;7.20;99.90;;;;;;5079869;28;20115;-74
2022/11/30 07:05:42;;;;;;;89.43;24.95;;;7.20;99.90;;;;;;5081004;28;20397;-75
2022/11/30 07:08:08;;;;;;;96.18;24.48;;;7.30;99.90;;;;;;5087680;28;20111;-74
2022/11/30 07:10:41;;;;;;;112.93;26.30;;;7.30;99.90;;;;;;5088028;28;20024;-74
2022/11/30 07:13:16;;;;;;;112.72;26.83;;;7.30;99.90;;;;;;5081274;28;20038;-74
2022/11/30 07:15:44;;;;;;;106.13;25.77;;;7.30;99.90;;;;;;5081761;28;20028;-75
2022/11/30 07:18:10;;;;;;;98.47;25.83;;;7.30;99.90;;;;;;5088093;28;20032;-74
2022/11/30 07:20:36;;;;;;;94.30;25.35;;;7.30;99.90;;;;;;5077504;28;20092;-74
2022/11/30 07:26:08;;;;;;;106.03;25.75;;;7.40;99.90;;;;;;5082561;28;20539;-74
2022/11/30 07:28:38;;;;;;;92.53;24.88;;;7.40;99.90;;;;;;5083085;28;20024;-73
2022/11/30 07:31:22;;;;;;;102.63;25.58;;;7.40;99.90;;;;;;5086720;28;20032;-71
2022/11/30 07:33:49;;;;;;;88.32;23.27;;;7.40;99.90;;;;;;5081920;28;20518;-72
2022/11/30 07:36:16;;;;;;;94.72;24.35;;;7.40;99.90;;;;;;5077784;28;20422;-72
2022/11/30 07:38:42;;;;;;;93.35;23.20;;;7.50;99.90;;;;;;5082917;28;20028;-72
2022/11/30 07:41:08;;;;;;;82.00;23.02;;;7.50;99.90;;;;;;5083430;28;20054;-72
2022/11/30 07:43:33;;;;;;;87.53;23.35;;;7.50;99.90;;;;;;5075462;28;20024;-72
2022/11/30 07:45:59;;;;;;;108.22;25.67;;;7.50;99.90;;;;;;5082710;28;20039;-72
2022/11/30 07:48:25;;;;;;;89.43;23.65;;;7.50;99.90;;;;;;5083187;28;21111;-72
2022/11/30 07:50:51;;;;;;;91.10;25.63;;;7.50;99.90;;;;;;5078884;28;20489;-72
2022/11/30 07:53:16;;;;;;;90.60;25.25;;;7.50;99.90;;;;;;5082924;28;20050;-72
2022/11/30 07:55:42;;;;;;;87.95;25.50;;;7.60;99.90;;;;;;5078522;28;20023;-71
2022/11/30 07:58:10;;;;;;;81.70;24.27;;;7.60;99.90;;;;;;5077708;28;20046;-74
2022/11/30 08:00:36;;;;;;;91.45;25.88;;;7.50;99.90;;;;;;5082757;28;22855;-73
2022/11/30 08:03:02;;;;;;;91.65;25.17;;;7.50;99.90;;;;;;5082328;28;20016;-72
2022/11/30 08:05:27;;;;;;;98.00;25.25;;;7.50;99.90;;;;;;5086487;28;20456;-72
2022/11/30 08:07:53;;;;;;;85.45;24.38;;;7.60;99.90;;;;;;5075807;28;20433;-72
2022/11/30 08:10:23;;;;;;;88.15;23.48;;;7.60;99.90;;;;;;5077542;28;20456;-72
2022/11/30 08:12:48;;;;;;;72.45;23.42;;;7.60;99.90;;;;;;5083360;28;20430;-72
2022/11/30 08:15:15;;;;;;;67.13;21.27;;;7.60;99.90;;;;;;5077925;28;20086;-72
2022/11/30 08:17:41;;;;;;;75.97;23.17;;;7.60;99.90;;;;;;5082043;28;20036;-71
2022/11/30 08:20:09;;;;;;;69.35;22.30;;;7.70;99.90;;;;;;5083301;28;20036;-72
2022/11/30 08:22:36;;;;;;;65.03;20.90;;;7.70;99.90;;;;;;5069958;28;20094;-72
2022/11/30 08:25:01;;;;;;;67.55;22.20;;;7.70;99.90;;;;;;5086241;28;20040;-75
2022/11/30 08:27:27;;;;;;;67.97;20.73;;;7.70;99.90;;;;;;5068995;28;20032;-75
2022/11/30 08:29:52;;;;;;;70.75;21.83;;;7.70;99.90;;;;;;5068904;28;20042;-74
2022/11/30 08:32:18;;;;;;;66.80;20.67;;;7.70;99.90;;;;;;5081854;28;20066;-75
2022/11/30 08:34:44;;;;;;;74.63;22.08;;;7.80;99.90;;;;;;5080267;28;20028;-74
2022/11/30 08:37:09;;;;;;;65.85;20.75;;;7.80;99.90;;;;;;5085977;28;20039;-77
2022/11/30 08:39:35;;;;;;;69.20;21.42;;;7.70;99.90;;;;;;5107143;27;20036;-75
2022/11/30 08:42:01;;;;;;;73.22;21.33;;;7.70;99.90;;;;;;5079502;28;20035;-73
2022/11/30 08:44:28;;;;;;;73.97;23.13;;;7.80;99.90;;;;;;5084144;28;20059;-74
2022/11/30 08:46:54;;;;;;;67.82;20.13;;;7.80;99.90;;;;;;5087827;28;20078;-74
2022/11/30 08:49:20;;;;;;;59.30;20.42;;;7.90;99.90;;;;;;5077955;28;20413;-74
2022/11/30 08:51:47;;;;;;;66.32;19.77;;;7.80;99.90;;;;;;5079997;28;20038;-75
2022/11/30 08:54:13;;;;;;;63.85;19.90;;;7.90;99.90;;;;;;5076921;28;20032;-74
2022/11/30 08:56:38;;;;;;;67.80;21.13;;;7.90;99.90;;;;;;5081762;28;20081;-74
2022/11/30 08:59:04;;;;;;;69.68;20.00;;;7.90;99.90;;;;;;5083407;28;20176;-74
2022/11/30 09:01:30;;;;;;;64.20;19.90;;;7.90;99.90;;;;;;5079722;28;20035;-76
2022/11/30 09:03:56;;;;;;;62.90;20.63;;;8.00;99.90;;;;;;5091655;28;20024;-75
2022/11/30 09:06:25;;;;;;;61.65;20.17;;;8.10;99.90;;;;;;5089901;28;20059;-75
2022/11/30 09:08:54;;;;;;;63.35;19.98;;;8.00;99.90;;;;;;5080202;28;20028;-76
2022/11/30 09:11:22;;;;;;;60.60;19.35;;;8.10;99.90;;;;;;5079100;28;20048;-75
2022/11/30 09:13:49;;;;;;;54.70;20.08;;;8.10;99.90;;;;;;5083655;28;20524;-75
2022/11/30 09:16:18;;;;;;;61.83;20.23;;;8.20;99.90;;;;;;5079378;28;20495;-75
2022/11/30 09:18:44;;;;;;;55.22;19.58;;;8.10;99.90;;;;;;5079976;28;20035;-75
2022/11/30 09:21:12;;;;;;;62.72;20.83;;;8.10;99.90;;;;;;5081065;28;20024;-75
2022/11/30 09:23:38;;;;;;;54.05;19.52;;;8.20;99.90;;;;;;5089368;28;20028;-75
2022/11/30 09:26:08;;;;;;;57.40;18.83;;;8.20;99.90;;;;;;5084660;28;20040;-75
2022/11/30 09:28:35;;;;;;;57.88;20.58;;;8.30;99.90;;;;;;5085782;28;20055;-75
2022/11/30 09:31:05;;;;;;;48.92;17.90;;;8.40;99.90;;;;;;5077694;28;20494;-76
2022/11/30 09:33:32;;;;;;;42.88;17.40;;;8.40;99.90;;;;;;5078335;28;20840;-75
2022/11/30 09:36:04;;;;;;;41.92;17.83;;;8.50;99.90;;;;;;5081144;28;20036;-74
2022/11/30 09:38:30;;;;;;;42.40;17.42;;;8.60;99.90;;;;;;5097374;28;20055;-75
2022/11/30 09:40:58;;;;;;;41.47;17.05;;;8.70;99.90;;;;;;5079603;28;20109;-74
2022/11/30 09:43:50;;;;;;;39.35;16.02;;;8.90;99.90;;;;;;5074849;28;20031;-77
2022/11/30 09:46:18;;;;;;;37.15;16.48;;;9.00;99.90;;;;;;5079912;28;20032;-75
2022/11/30 09:48:55;;;;;;;36.97;15.13;;;9.00;99.90;;;;;;5073691;28;20035;-76
2022/11/30 09:51:43;;;;;;;30.35;15.20;;;9.00;99.90;;;;;;5070178;28;20058;-76
2022/11/30 09:54:14;;;;;;;32.05;14.40;;;9.10;99.90;;;;;;5100312;28;20028;-76
2022/11/30 09:56:42;;;;;;;30.50;13.70;;;9.10;99.90;;;;;;5085266;28;20044;-75
2022/11/30 09:59:14;;;;;;;30.77;13.95;;;9.20;99.90;;;;;;5084480;28;20532;-75
2022/11/30 10:01:42;;;;;;;28.02;13.55;;;9.20;99.90;;;;;;5081151;28;20072;-74
2022/11/30 10:04:27;;;;;;;26.75;13.27;;;9.30;99.90;;;;;;5084226;28;20060;-74
2022/11/30 10:07:26;;;;;;;26.50;12.80;;;9.30;99.90;;;;;;5072315;28;20035;-76
2022/11/30 10:10:01;;;;;;;25.65;12.25;;;9.30;99.90;;;;;;5062645;28;20433;-76
2022/11/30 10:12:38;;;;;;;28.40;12.95;;;9.30;99.90;;;;;;5071440;28;20028;-78
2022/11/30 10:15:22;;;;;;;24.55;12.57;;;9.30;99.90;;;;;;5086066;28;20118;-76
2022/11/30 10:17:57;;;;;;;24.23;12.25;;;9.30;99.90;;;;;;5094937;28;20023;-76
2022/11/30 10:20:59;;;;;;;24.85;12.27;;;9.30;99.90;;;;;;5090743;28;20119;-76
2022/11/30 10:23:36;;;;;;;23.42;12.18;;;9.30;99.90;;;;;;5088655;28;20685;-77
2022/11/30 10:26:13;;;;;;;21.23;11.60;;;9.50;99.90;;;;;;5082194;28;20032;-76
2022/11/30 10:28:52;;;;;;;20.77;11.35;;;9.60;99.90;;;;;;5077245;28;20032;-77
2022/11/30 10:31:24;;;;;;;23.02;11.88;;;9.60;99.90;;;;;;5085627;28;20036;-75
2022/11/30 10:33:53;;;;;;;20.85;11.35;;;9.60;99.90;;;;;;5080826;28;20047;-73
2022/11/30 10:36:24;;;;;;;19.05;11.18;;;9.70;99.90;;;;;;5088947;28;20123;-74
2022/11/30 10:38:59;;;;;;;22.15;11.52;;;9.60;99.90;;;;;;5088677;28;20028;-74
2022/11/30 10:41:37;;;;;;;18.55;10.07;;;9.70;99.90;;;;;;5083444;28;20029;-74
2022/11/30 10:44:17;;;;;;;16.48;9.05;;;9.90;99.90;;;;;;5093344;28;20084;-74
2022/11/30 10:46:59;;;;;;;14.33;9.00;;;9.90;99.90;;;;;;5079412;28;20471;-75
2022/11/30 10:49:28;;;;;;;17.05;8.82;;;10.00;99.90;;;;;;5083827;28;20818;-76
2022/11/30 10:51:58;;;;;;;15.10;8.02;;;10.10;99.90;;;;;;5082752;28;20119;-76
2022/11/30 10:54:24;;;;;;;16.80;8.73;;;10.10;99.90;;;;;;5088499;28;20040;-77
2022/11/30 10:56:50;;;;;;;14.98;8.82;;;10.30;99.90;;;;;;5086687;28;20042;-74
2022/11/30 10:59:18;;;;;;;14.55;8.15;;;10.50;99.90;;;;;;5084080;28;20389;-75
2022/11/30 11:01:44;;;;;;;15.93;8.23;;;10.50;99.90;;;;;;5073984;28;20478;-75
2022/11/30 11:04:14;;;;;;;13.73;8.35;;;10.60;99.90;;;;;;5080982;28;20043;-75
2022/11/30 11:06:59;;;;;;;;;;;10.70;99.90;;;;;;5082543;28;20482;-78
2022/11/30 11:09:48;;;;;;;10.23;6.60;;;10.80;99.90;;;;;;5077130;28;20053;-76
2022/11/30 11:12:26;;;;;;;10.20;6.10;;;11.50;99.90;;;;;;5083215;28;20077;-73
2022/11/30 11:15:19;;;;;;;11.50;5.72;;;12.10;99.90;;;;;;5081787;28;20040;-74
2022/11/30 11:17:45;;;;;;;12.00;5.30;;;12.30;99.90;;;;;;5088398;28;20085;-72
2022/11/30 11:20:38;;;;;;;10.50;4.18;;;12.80;99.90;;;;;;5081102;28;20036;-73
2022/11/30 11:23:04;;;;;;;7.95;4.47;;;12.50;99.90;;;;;;5091842;28;20119;-75
2022/11/30 11:25:41;;;;;;;9.18;5.00;;;12.20;99.90;;;;;;5085352;28;20306;-74
2022/11/30 11:28:17;;;;;;;10.23;4.13;;;11.70;99.90;;;;;;5081897;28;20711;-73
2022/11/30 11:30:43;;;;;;;9.25;4.28;;;11.50;99.90;;;;;;5087441;28;20022;-76
2022/11/30 11:33:11;;;;;;;7.85;3.25;;;11.40;99.90;;;;;;5090408;28;20040;-74
2022/11/30 11:35:50;;;;;;;6.43;3.03;;;11.30;99.90;;;;;;5082216;28;20039;-76
2022/11/30 11:38:26;;;;;;;6.38;3.13;;;11.20;99.90;;;;;;5085429;28;20122;-74
2022/11/30 11:41:04;;;;;;;7.22;2.97;;;11.20;99.90;;;;;;5083560;28;20099;-74
2022/11/30 11:43:32;;;;;;;8.60;3.33;;;11.20;99.90;;;;;;5100878;28;20062;-74
2022/11/30 11:46:11;;;;;;;7.70;3.45;;;11.10;99.90;;;;;;5087127;28;20116;-74
2022/11/30 11:48:43;;;;;;;7.70;3.80;;;11.10;99.90;;;;;;5088059;28;20028;-74
2022/11/30 11:51:09;;;;;;;10.18;4.03;;;11.00;99.90;;;;;;5087308;28;20036;-75
2022/11/30 11:54:03;;;;;;;5.90;3.00;;;10.90;99.90;;;;;;5099855;28;20363;-75
2022/11/30 11:56:33;;;;;;;7.68;3.17;;;10.80;99.90;;;;;;5081841;28;20040;-75
2022/11/30 11:59:21;;;;;;;;;;;10.80;99.90;;;;;;5080787;28;20119;-76
2022/11/30 12:02:11;;;;;;;8.82;3.78;;;10.90;99.90;;;;;;5056113;28;20374;-75
2022/11/30 12:04:56;;;;;;;9.70;3.90;;;10.90;99.90;;;;;;5101641;28;20055;-74
2022/11/30 12:07:52;;;;;;;6.15;3.60;;;11.00;99.90;;;;;;5078958;28;20025;-75
2022/11/30 12:10:52;;;;;;;8.57;3.70;;;10.90;99.90;;;;;;5093604;28;20031;-75
2022/11/30 12:13:21;;;;;;;7.75;3.05;;;10.70;99.90;;;;;;5080975;28;20253;-75
2022/11/30 12:16:18;;;;;;;9.23;2.85;;;10.80;99.90;;;;;;5079530;28;20147;-74
2022/11/30 12:18:59;;;;;;;8.18;3.28;;;10.90;99.90;;;;;;5082438;28;20746;-75
2022/11/30 12:21:31;;;;;;;5.93;2.97;;;10.90;99.90;;;;;;5091542;28;20040;-74
2022/11/30 12:24:02;;;;;;;6.35;2.95;;;10.80;99.90;;;;;;5088396;28;20031;-76
2022/11/30 12:26:44;;;;;;;7.75;3.70;;;10.80;99.90;;;;;;5084154;28;20093;-75
2022/11/30 12:29:24;;;;;;;7.90;3.30;;;10.90;99.90;;;;;;5085852;28;20054;-75
2022/11/30 12:31:58;;;;;;;7.43;3.28;;;10.70;99.90;;;;;;5087484;28;20055;-75
2022/11/30 12:34:29;;;;;;;7.28;3.60;;;10.60;99.90;;;;;;5079837;28;20031;-75
2022/11/30 12:37:04;;;;;;;7.05;3.30;;;10.40;99.90;;;;;;5088357;28;20036;-76
2022/11/30 12:39:43;;;;;;;9.18;3.53;;;10.30;99.90;;;;;;5079973;28;20081;-76
2022/11/30 12:42:27;;;;;;;5.55;2.72;;;10.20;99.90;;;;;;5085163;28;20038;-76
2022/11/30 12:44:58;;;;;;;7.15;2.90;;;10.10;99.90;;;;;;5102614;27;20428;-75
2022/11/30 12:47:25;;;;;;;6.50;2.20;;;10.10;99.90;;;;;;5089482;28;20070;-73
2022/11/30 12:50:20;;;;;;;7.90;2.70;;;10.00;99.90;;;;;;5086819;28;20063;-74